Time;durP1;ratioP1;P1;durP2;ratioP2;P2;SDS_P1;SDS_P2;PMS_P1;PMS_P2;Temp;Humidity;BMP_temperature;BMP_pressure;BME280_temperature;BME280_humidity;BME280_pressure;Samples;Min_cycle;Max_cycle;Signal;HPM_P1;HPM_P2
2021/06/16 00:01:47;;;;;;;8.75;7.55;;;;;;;17.87;60.01;99043.59;1810270;78;21010;-58
2021/06/16 00:04:13;;;;;;;10.50;8.25;;;;;;;17.83;60.37;99038.91;1773174;78;21500;-58
2021/06/16 00:06:40;;;;;;;10.55;8.48;;;;;;;17.73;60.65;99044.80;1788760;78;21508;-58
2021/06/16 00:09:07;;;;;;;10.20;8.35;;;;;;;17.68;60.88;99050.56;1788981;78;21069;-58
2021/06/16 00:11:34;;;;;;;8.80;7.00;;;;;;;17.64;61.15;99044.83;1761919;78;21011;-58
2021/06/16 00:14:01;;;;;;;8.85;7.50;;;;;;;17.58;61.51;99043.03;1769961;78;20978;-58
2021/06/16 00:16:28;;;;;;;12.95;8.55;;;;;;;17.54;61.52;99050.44;1787921;78;21282;-58
2021/06/16 00:18:55;;;;;;;11.75;8.68;;;;;;;17.53;61.48;99052.82;1776103;78;20931;-58
2021/06/16 00:21:21;;;;;;;10.53;8.08;;;;;;;17.56;61.48;99053.20;1777136;78;20894;-58
2021/06/16 00:23:48;;;;;;;14.47;9.80;;;;;;;17.58;61.63;99050.27;1779804;78;20930;-59
2021/06/16 00:26:16;;;;;;;17.73;11.00;;;;;;;17.56;61.78;99053.72;1806318;78;21555;-58
2021/06/16 00:28:43;;;;;;;8.60;7.05;;;;;;;17.54;61.79;99058.51;1786804;78;21138;-59
2021/06/16 00:31:09;;;;;;;7.30;6.05;;;;;;;17.56;61.87;99049.69;1809286;78;20982;-57
2021/06/16 00:33:35;;;;;;;8.15;5.45;;;;;;;17.66;61.78;99054.83;1765886;78;22046;-57
2021/06/16 00:36:02;;;;;;;8.13;5.35;;;;;;;17.70;61.49;99052.52;1820061;78;21065;-56
2021/06/16 00:38:28;;;;;;;6.95;4.58;;;;;;;17.66;61.46;99051.31;1813550;78;20964;-57
2021/06/16 00:40:58;;;;;;;8.63;4.22;;;;;;;17.66;61.41;99058.04;1816422;78;21950;-57
2021/06/16 00:43:25;;;;;;;4.78;3.77;;;;;;;17.67;61.31;99052.97;1808202;78;20973;-58
2021/06/16 00:45:51;;;;;;;23.07;11.38;;;;;;;17.63;61.35;99053.94;1784376;80;20942;-57
2021/06/16 00:48:17;;;;;;;28.05;15.83;;;;;;;17.60;61.48;99049.52;1768199;80;21036;-57
2021/06/16 00:50:44;;;;;;;34.40;18.77;;;;;;;17.58;61.54;99055.66;1756646;81;20976;-56
2021/06/16 00:53:11;;;;;;;46.20;25.48;;;;;;;17.57;61.55;99054.83;1758511;80;21125;-57
2021/06/16 00:55:39;;;;;;;43.42;22.17;;;;;;;17.57;61.53;99058.86;1781446;80;20954;-57
2021/06/16 00:58:11;;;;;;;42.60;24.63;;;;;;;17.57;61.57;99064.23;1742503;81;21575;-57
2021/06/16 01:00:48;;;;;;;47.53;27.45;;;;;;;17.54;61.67;99066.58;1766778;80;20987;-58
2021/06/16 01:03:37;;;;;;;49.30;27.10;;;;;;;17.51;61.78;99065.64;1753862;80;20917;-58
2021/06/16 01:06:22;;;;;;;39.10;23.22;;;;;;;17.48;61.92;99068.78;1711679;82;21166;-58
2021/06/16 01:09:08;;;;;;;37.00;21.23;;;;;;;17.43;62.11;99066.77;1745011;80;20928;-58
2021/06/16 01:11:38;;;;;;;30.40;19.82;;;;;;;17.43;62.25;99065.94;1748417;80;21384;-58
2021/06/16 01:14:12;;;;;;;37.17;20.32;;;;;;;17.43;62.24;99061.91;1759729;81;20990;-58
2021/06/16 01:16:42;;;;;;;36.88;21.00;;;;;;;17.45;62.22;99059.80;1784393;80;20986;-59
2021/06/16 01:19:21;;;;;;;33.92;21.57;;;;;;;17.46;62.21;99055.56;1780327;80;21197;-58
2021/06/16 01:21:48;;;;;;;33.20;20.00;;;;;;;17.41;62.32;99068.04;1760447;81;20977;-58
2021/06/16 01:24:18;;;;;;;25.55;15.95;;;;;;;17.33;62.51;99068.33;1779994;80;21000;-57
2021/06/16 01:26:50;;;;;;;12.70;9.03;;;;;;;17.12;62.72;99070.92;1776215;80;20975;-57
2021/06/16 01:29:23;;;;;;;41.02;24.15;;;;;;;16.92;63.05;99084.53;1759611;81;20891;-58
2021/06/16 01:31:50;;;;;;;51.20;27.95;;;;;;;16.86;63.48;99083.26;1759019;80;21055;-58
2021/06/16 01:34:19;;;;;;;36.77;24.82;;;;;;;16.85;63.73;99081.09;1772164;80;21077;-57
2021/06/16 01:36:46;;;;;;;44.20;23.60;;;;;;;16.86;63.98;99084.09;1735323;81;21525;-58
2021/06/16 01:39:16;;;;;;;42.48;24.85;;;;;;;16.89;64.01;99080.97;1761489;80;20987;-57
2021/06/16 01:41:43;;;;;;;36.60;21.68;;;;;;;16.92;64.09;99083.73;1748860;80;21536;-58
2021/06/16 01:44:11;;;;;;;23.62;14.83;;;;;;;16.82;64.22;99088.23;1752641;80;21179;-57
2021/06/16 01:46:39;;;;;;;11.73;8.85;;;;;;;16.73;64.42;99092.25;1740884;80;20986;-56
2021/06/16 01:49:05;;;;;;;18.42;9.93;;;;;;;16.62;64.64;99094.30;1751004;79;20928;-57
2021/06/16 01:51:32;;;;;;;12.88;8.20;;;;;;;16.51;65.02;99096.30;1727126;82;21012;-57
2021/06/16 01:53:59;;;;;;;11.78;9.28;;;;;;;16.51;65.20;99098.47;1776164;80;20876;-57
2021/06/16 01:56:27;;;;;;;10.00;7.35;;;;;;;16.49;65.35;99099.73;1714557;81;21148;-57
2021/06/16 01:58:54;;;;;;;10.82;7.00;;;;;;;16.50;65.54;99096.02;1727715;80;20912;-57
2021/06/16 02:01:22;;;;;;;10.18;8.58;;;;;;;16.51;65.72;99096.30;1729456;80;20935;-57
2021/06/16 02:03:50;;;;;;;13.55;8.78;;;;;;;16.53;65.93;99103.64;1744598;80;20960;-56
2021/06/16 02:06:18;;;;;;;11.80;8.83;;;;;;;16.57;66.07;99100.33;1740309;80;21008;-57
2021/06/16 02:08:48;;;;;;;11.12;7.97;;;;;;;16.60;66.28;99101.75;1747059;80;21107;-58
2021/06/16 02:11:19;;;;;;;12.37;8.18;;;;;;;16.62;66.42;99101.01;1727622;80;20983;-57
2021/06/16 02:13:54;;;;;;;10.63;7.90;;;;;;;16.66;66.49;99100.34;1744527;80;21465;-57
2021/06/16 02:16:37;;;;;;;11.18;7.37;;;;;;;16.71;66.50;99101.05;1736061;80;20940;-57
2021/06/16 02:19:12;;;;;;;9.75;8.13;;;;;;;16.78;66.37;99099.13;1770128;80;21481;-58
2021/06/16 02:21:39;;;;;;;14.75;9.43;;;;;;;16.79;66.43;99103.44;1742248;82;21016;-57
2021/06/16 02:24:08;;;;;;;14.05;10.08;;;;;;;16.83;66.48;99105.18;1770794;80;20982;-58
2021/06/16 02:26:36;;;;;;;11.68;10.00;;;;;;;16.84;66.47;99106.30;1745638;80;21008;-58
2021/06/16 02:29:11;;;;;;;15.18;10.78;;;;;;;16.87;66.53;99103.72;1769484;80;21023;-57
2021/06/16 02:31:39;;;;;;;15.30;10.98;;;;;;;16.92;66.55;99113.28;1736132;80;21020;-58
2021/06/16 02:34:06;;;;;;;17.05;11.80;;;;;;;16.98;66.50;99109.70;1793175;78;21135;-58
2021/06/16 02:36:41;;;;;;;11.28;9.33;;;;;;;16.96;66.51;99117.99;1752192;80;20943;-57
2021/06/16 02:39:15;;;;;;;13.00;9.23;;;;;;;16.88;66.49;99116.09;1740810;80;21049;-58
2021/06/16 02:41:42;;;;;;;10.00;8.03;;;;;;;16.79;66.41;99120.91;1743633;80;21534;-58
2021/06/16 02:44:09;;;;;;;11.35;7.50;;;;;;;16.76;66.31;99126.73;1746145;79;21602;-58
2021/06/16 02:46:35;;;;;;;9.28;7.35;;;;;;;16.69;66.31;99132.66;1762532;79;21215;-57
2021/06/16 02:49:03;;;;;;;8.43;5.92;;;;;;;16.61;66.51;99130.23;1787589;79;21030;-58
2021/06/16 02:51:31;;;;;;;8.03;7.22;;;;;;;16.62;66.70;99123.84;1740506;80;21070;-58
2021/06/16 02:53:57;;;;;;;8.68;7.25;;;;;;;16.63;66.71;99127.63;1776430;79;20896;-58
2021/06/16 02:56:24;;;;;;;8.25;6.50;;;;;;;16.70;66.87;99128.94;1701863;83;21512;-58
2021/06/16 02:58:51;;;;;;;8.08;6.47;;;;;;;16.79;66.94;99124.14;1755045;79;21202;-58
2021/06/16 03:01:18;;;;;;;8.18;5.08;;;;;;;16.89;67.00;99123.95;1746043;79;20947;-57
2021/06/16 03:03:48;;;;;;;6.92;5.42;;;;;;;17.03;66.80;99121.44;1722000;83;20994;-58
2021/06/16 03:06:17;;;;;;;6.10;4.67;;;;;;;17.15;66.57;99123.69;1771924;79;21489;-57
2021/06/16 03:08:46;;;;;;;12.45;4.40;;;;;;;17.26;66.52;99118.11;1750037;80;21019;-58
2021/06/16 03:11:12;;;;;;;4.85;4.15;;;;;;;17.41;66.34;99118.61;1700511;82;21107;-58
2021/06/16 03:13:39;;;;;;;8.15;4.03;;;;;;;17.54;66.16;99121.70;1740773;80;20979;-57
2021/06/16 03:16:05;;;;;;;6.53;4.00;;;;;;;17.68;65.85;99123.19;1784088;79;20896;-58
2021/06/16 03:18:32;;;;;;;5.37;4.05;;;;;;;17.87;65.40;99122.14;1755707;79;21050;-57
2021/06/16 03:20:58;;;;;;;6.95;3.90;;;;;;;18.11;65.00;99121.23;1722398;82;21454;-58
2021/06/16 03:23:26;;;;;;;7.00;3.72;;;;;;;18.34;64.51;99121.32;1752647;79;21172;-58
2021/06/16 03:25:55;;;;;;;6.33;4.70;;;;;;;18.67;64.04;99120.02;1740504;80;20971;-58
2021/06/16 03:28:23;;;;;;;4.45;4.00;;;;;;;19.06;63.12;99122.08;1761164;80;20896;-58
2021/06/16 03:30:53;;;;;;;6.67;3.80;;;;;;;19.48;62.22;99118.77;1750256;80;21454;-57
2021/06/16 03:33:20;;;;;;;4.40;3.62;;;;;;;19.95;61.27;99122.20;1733181;80;21027;-58
2021/06/16 03:35:47;;;;;;;4.60;3.90;;;;;;;20.37;60.20;99120.92;1752826;79;21143;-58
2021/06/16 03:38:13;;;;;;;3.92;3.60;;;;;;;20.71;59.01;99124.50;1754718;80;20975;-58
2021/06/16 03:40:42;;;;;;;6.60;4.15;;;;;;;20.93;58.23;99122.17;1751388;80;21062;-57
2021/06/16 03:43:09;;;;;;;3.72;3.42;;;;;;;21.16;57.45;99119.06;1721319;81;21484;-57
2021/06/16 03:45:35;;;;;;;5.50;3.85;;;;;;;21.40;56.98;99123.23;1747253;79;20999;-56
2021/06/16 03:48:03;;;;;;;5.60;4.22;;;;;;;21.62;56.31;99125.42;1764465;80;21145;-56
2021/06/16 03:50:29;;;;;;;4.75;3.60;;;;;;;21.81;55.81;99123.23;1782370;79;20883;-57
2021/06/16 03:52:55;;;;;;;5.80;3.15;;;;;;;21.98;55.49;99122.13;1708209;83;21508;-57
2021/06/16 03:55:22;;;;;;;4.85;3.70;;;;;;;22.24;54.83;99118.39;1756277;80;21066;-59
2021/06/16 03:57:48;;;;;;;4.53;4.12;;;;;;;22.52;53.80;99122.20;1740505;80;20844;-59
2021/06/16 04:00:17;;;;;;;6.22;4.22;;;;;;;22.79;53.05;99125.73;1772051;79;21159;-58
2021/06/16 04:02:47;;;;;;;6.50;4.95;;;;;;;23.07;52.32;99124.07;1703658;82;20971;-58
2021/06/16 04:05:14;;;;;;;6.92;5.22;;;;;;;23.38;51.50;99121.62;1757041;80;21031;-57
2021/06/16 04:07:40;;;;;;;9.33;4.58;;;;;;;23.69;50.75;99128.34;1737743;81;21070;-58
2021/06/16 04:10:08;;;;;;;7.42;5.20;;;;;;;24.08;49.94;99134.76;1769015;79;21062;-57
2021/06/16 04:12:35;;;;;;;7.33;4.90;;;;;;;24.43;49.00;99131.63;1754497;80;21192;-57
2021/06/16 04:15:02;;;;;;;5.33;4.80;;;;;;;24.75;48.42;99130.06;1759429;79;21560;-57
2021/06/16 04:17:29;;;;;;;4.45;3.92;;;;;;;25.11;47.69;99130.92;1722100;83;21458;-57
2021/06/16 04:19:55;;;;;;;4.67;4.12;;;;;;;25.41;46.94;99132.27;1784305;79;20931;-57
2021/06/16 04:22:21;;;;;;;4.47;3.90;;;;;;;25.76;46.34;99134.11;1740478;80;20888;-57
2021/06/16 04:24:48;;;;;;;5.67;3.52;;;;;;;26.16;45.37;99134.00;1749297;80;21426;-59
2021/06/16 04:27:15;;;;;;;6.30;3.92;;;;;;;26.44;44.80;99134.42;1757179;80;20955;-60
2021/06/16 04:29:42;;;;;;;7.28;3.30;;;;;;;26.59;44.21;99132.95;1747602;80;20936;-59
2021/06/16 04:32:09;;;;;;;4.47;3.20;;;;;;;26.40;44.19;99136.89;1762002;80;21471;-59
2021/06/16 04:34:36;;;;;;;5.75;3.40;;;;;;;26.16;44.81;99140.00;1764349;80;20970;-59
2021/06/16 04:37:05;;;;;;;4.30;3.08;;;;;;;25.87;45.26;99143.89;1795264;78;20910;-58
2021/06/16 04:39:31;;;;;;;8.90;3.50;;;;;;;25.68;45.80;99147.75;1806483;78;21012;-58
2021/06/16 04:41:58;;;;;;;5.05;3.15;;;;;;;25.46;46.28;99147.80;1792028;78;20978;-59
2021/06/16 04:44:24;;;;;;;4.62;3.05;;;;;;;25.19;46.66;99149.42;1750465;80;20946;-58
2021/06/16 04:46:50;;;;;;;4.22;2.92;;;;;;;24.95;47.32;99147.00;1740072;81;20963;-61
2021/06/16 04:49:17;;;;;;;3.95;3.35;;;;;;;24.85;47.70;99142.34;1740528;81;21167;-58
2021/06/16 04:51:43;;;;;;;3.90;3.40;;;;;;;24.77;47.85;99134.69;1765399;81;20994;-62
2021/06/16 04:54:10;;;;;;;3.80;3.15;;;;;;;24.74;48.09;99135.22;1784324;80;21103;-54
2021/06/16 04:56:39;;;;;;;4.87;3.02;;;;;;;24.75;48.02;99138.22;1750412;81;21072;-60
2021/06/16 04:59:05;;;;;;;5.10;3.33;;;;;;;24.66;48.01;99141.22;1728977;83;21002;-63
2021/06/16 05:01:32;;;;;;;3.85;2.98;;;;;;;24.53;48.51;99146.61;1757341;80;21861;-60
2021/06/16 05:03:58;;;;;;;3.58;3.27;;;;;;;24.58;48.73;99146.36;1727766;81;21057;-59
2021/06/16 05:06:25;;;;;;;4.37;3.30;;;;;;;24.45;48.85;99153.95;1750815;80;20898;-60
2021/06/16 05:08:51;;;;;;;4.70;3.72;;;;;;;24.34;49.12;99156.36;1753337;80;21019;-58
2021/06/16 05:11:18;;;;;;;5.60;3.75;;;;;;;24.23;49.58;99156.05;1765820;80;20910;-61
2021/06/16 05:13:45;;;;;;;3.87;3.05;;;;;;;24.25;49.76;99150.33;1738183;80;22005;-58
2021/06/16 05:16:11;;;;;;;3.58;3.27;;;;;;;24.38;49.52;99152.02;1757819;80;21009;-64
2021/06/16 05:18:45;;;;;;;6.03;3.25;;;;;;;24.55;49.28;99151.26;1740621;80;20974;-62
2021/06/16 05:21:07;;;;;;;3.67;3.22;;;;;;;24.62;48.72;99149.63;1742629;82;20843;-60
2021/06/16 05:23:33;;;;;;;4.55;3.95;;;;;;;24.48;48.85;99151.24;1761521;81;21007;-60
2021/06/16 05:26:00;;;;;;;9.00;4.00;;;;;;;24.55;49.04;99148.54;1784214;80;22427;-61
2021/06/16 05:28:27;;;;;;;5.37;3.80;;;;;;;24.80;48.84;99147.78;1759370;81;20971;-60
2021/06/16 05:30:53;;;;;;;6.20;3.35;;;;;;;25.24;48.24;99148.06;1784326;80;20946;-60
2021/06/16 05:33:19;;;;;;;4.50;3.35;;;;;;;25.81;47.19;99141.47;1739039;81;20919;-61
2021/06/16 05:35:46;;;;;;;3.87;3.47;;;;;;;26.49;46.14;99136.55;1770256;79;21007;-62
2021/06/16 05:38:12;;;;;;;5.15;3.25;;;;;;;27.10;44.79;99136.15;1727475;80;21134;-61
2021/06/16 05:40:38;;;;;;;6.62;3.50;;;;;;;27.48;43.70;99135.27;1782404;80;21384;-60
2021/06/16 05:43:05;;;;;;;6.72;3.98;;;;;;;27.67;42.97;99137.55;1741980;82;21045;-59
2021/06/16 05:45:31;;;;;;;6.00;3.60;;;;;;;27.78;42.68;99141.80;1782526;80;20881;-60
2021/06/16 05:47:58;;;;;;;4.42;3.92;;;;;;;27.84;42.33;99136.55;1752549;80;20980;-61
2021/06/16 05:50:24;;;;;;;6.78;3.50;;;;;;;27.85;42.38;99129.95;1742059;82;21151;-62
2021/06/16 05:52:51;;;;;;;4.37;3.60;;;;;;;27.87;42.17;99133.78;1741110;80;20964;-60
2021/06/16 05:55:17;;;;;;;5.10;4.03;;;;;;;28.10;41.87;99127.52;1796668;79;21014;-60
2021/06/16 05:57:44;;;;;;;4.95;3.45;;;;;;;28.29;41.58;99124.82;1814070;79;20925;-61
2021/06/16 06:00:12;;;;;;;4.28;3.55;;;;;;;28.54;41.11;99132.66;1764465;79;21662;-59
2021/06/16 06:02:38;;;;;;;6.37;3.85;;;;;;;28.86;40.74;99131.95;1799160;79;21125;-60
2021/06/16 06:05:07;;;;;;;6.45;4.37;;;;;;;29.39;40.01;99137.36;1811813;79;21046;-60
2021/06/16 06:07:33;;;;;;;5.90;4.20;;;;;;;30.02;38.94;99136.19;1812963;79;21038;-60
2021/06/16 06:10:00;;;;;;;4.62;3.95;;;;;;;30.54;37.28;99129.33;1813791;79;21053;-61
2021/06/16 06:12:26;;;;;;;6.37;4.12;;;;;;;30.65;37.09;99145.01;1815784;79;21512;-62
2021/06/16 06:14:53;;;;;;;4.33;3.92;;;;;;;30.78;36.80;99138.66;1813683;79;21148;-62
2021/06/16 06:17:20;;;;;;;5.60;3.37;;;;;;;30.93;36.95;99133.66;1815595;78;20911;-64
2021/06/16 06:19:46;;;;;;;7.12;3.45;;;;;;;31.38;36.51;99130.88;1815296;79;20923;-64
2021/06/16 06:22:13;;;;;;;3.98;3.40;;;;;;;31.92;35.63;99128.33;1814735;79;21508;-60
2021/06/16 06:24:39;;;;;;;5.47;3.70;;;;;;;32.32;34.89;99129.94;1815734;78;21395;-62
2021/06/16 06:27:07;;;;;;;4.67;3.60;;;;;;;32.45;34.41;99133.12;1813774;79;21079;-62
2021/06/16 06:29:34;;;;;;;7.95;3.98;;;;;;;32.58;34.08;99133.56;1816171;78;21006;-64
2021/06/16 06:32:00;;;;;;;5.85;4.17;;;;;;;32.72;33.90;99132.05;1814085;79;21406;-66
2021/06/16 06:34:26;;;;;;;5.20;3.72;;;;;;;32.80;33.46;99131.23;1814822;78;21133;-66
2021/06/16 06:36:55;;;;;;;6.37;3.70;;;;;;;32.84;33.38;99129.44;1814085;79;20986;-66
2021/06/16 06:39:21;;;;;;;4.22;3.80;;;;;;;33.02;33.21;99135.18;1815488;78;21146;-65
2021/06/16 06:41:48;;;;;;;4.83;3.45;;;;;;;33.09;32.48;99133.33;1815649;78;20920;-66
2021/06/16 06:44:14;;;;;;;7.00;4.25;;;;;;;32.84;32.57;99138.52;1814047;78;20939;-66
2021/06/16 06:46:43;;;;;;;5.08;3.92;;;;;;;32.57;33.23;99136.06;1815451;78;21532;-66
2021/06/16 06:49:10;;;;;;;5.58;3.42;;;;;;;32.62;33.45;99138.66;1813844;78;20978;-67
2021/06/16 06:51:37;;;;;;;4.60;3.67;;;;;;;32.80;33.44;99134.78;1763688;79;21148;-66
2021/06/16 06:54:08;;;;;;;4.80;3.17;;;;;;;33.08;32.84;99139.99;1765884;79;20916;-64
2021/06/16 06:56:33;;;;;;;5.65;3.02;;;;;;;33.27;32.93;99139.08;1761065;79;21029;-65
2021/06/16 06:58:59;;;;;;;5.17;3.40;;;;;;;33.52;32.65;99138.20;1767772;79;20885;-65
2021/06/16 07:01:26;;;;;;;4.83;3.47;;;;;;;33.82;32.45;99130.80;1775783;79;20963;-65
2021/06/16 07:03:52;;;;;;;7.47;3.42;;;;;;;34.17;31.83;99128.72;1753797;79;21155;-64
2021/06/16 07:06:18;;;;;;;4.87;3.50;;;;;;;34.18;31.76;99126.21;1753625;79;20940;-64
2021/06/16 07:08:45;;;;;;;3.92;2.92;;;;;;;34.29;31.53;99127.42;1753649;79;21493;-65
2021/06/16 07:11:11;;;;;;;4.10;3.33;;;;;;;34.57;31.07;99124.44;1753834;79;20912;-64
2021/06/16 07:13:39;;;;;;;4.80;3.40;;;;;;;34.95;30.48;99125.09;1753837;79;21117;-64
2021/06/16 07:16:07;;;;;;;3.40;2.85;;;;;;;35.14;29.88;99130.14;1753554;79;21116;-65
2021/06/16 07:18:33;;;;;;;4.40;3.40;;;;;;;35.46;29.94;99124.37;1753456;79;21023;-64
2021/06/16 07:20:59;;;;;;;5.22;3.25;;;;;;;35.88;28.98;99132.73;1753739;79;21003;-65
2021/06/16 07:23:26;;;;;;;3.47;3.08;;;;;;;36.29;28.67;99136.70;1757047;79;21503;-65
2021/06/16 07:25:52;;;;;;;5.90;2.77;;;;;;;36.71;27.98;99134.42;1785108;79;20923;-63
2021/06/16 07:28:18;;;;;;;4.45;2.98;;;;;;;36.89;27.96;99133.58;1763054;79;21859;-64
2021/06/16 07:30:45;;;;;;;7.90;3.60;;;;;;;37.02;27.59;99138.73;1784623;79;20974;-64
2021/06/16 07:33:11;;;;;;;6.40;3.50;;;;;;;37.38;27.34;99139.16;1784844;79;20899;-63
2021/06/16 07:35:38;;;;;;;5.72;3.60;;;;;;;37.73;26.54;99141.30;1753319;79;20943;-64
2021/06/16 07:38:04;;;;;;;3.95;3.02;;;;;;;37.91;26.37;99140.58;1748273;79;20990;-65
2021/06/16 07:40:30;;;;;;;3.77;2.85;;;;;;;38.17;26.33;99141.44;1770316;79;21131;-64
2021/06/16 07:42:57;;;;;;;3.72;2.90;;;;;;;38.55;25.70;99145.72;1748184;79;21164;-65
2021/06/16 07:45:23;;;;;;;4.85;3.15;;;;;;;38.66;25.30;99145.95;1770036;79;20986;-64
2021/06/16 07:47:49;;;;;;;4.22;3.27;;;;;;;38.88;25.07;99144.67;1770316;79;21493;-65
2021/06/16 07:50:17;;;;;;;4.90;3.30;;;;;;;38.96;24.92;99147.59;1735970;82;20953;-64
2021/06/16 07:52:43;;;;;;;5.03;3.27;;;;;;;39.18;24.75;99146.87;1745378;80;21157;-66
2021/06/16 07:55:10;;;;;;;5.58;3.72;;;;;;;39.38;24.38;99145.69;1742204;82;21446;-64
2021/06/16 07:57:37;;;;;;;6.78;4.20;;;;;;;39.52;23.85;99151.53;1746705;80;20940;-64
2021/06/16 08:00:05;;;;;;;5.58;3.60;;;;;;;39.40;23.90;99154.47;1727403;80;21026;-67
2021/06/16 08:02:34;;;;;;;7.72;3.55;;;;;;;39.32;24.04;99156.31;1764570;80;21497;-65
2021/06/16 08:05:00;;;;;;;4.17;3.58;;;;;;;39.49;23.96;99157.83;1788524;80;21124;-64
2021/06/16 08:07:27;;;;;;;4.70;3.12;;;;;;;39.42;23.55;99154.92;1741872;82;20967;-64
2021/06/16 08:09:53;;;;;;;4.65;3.58;;;;;;;39.26;23.85;99157.80;1739437;79;21055;-64
2021/06/16 08:12:19;;;;;;;8.15;3.42;;;;;;;39.19;24.21;99158.26;1707802;83;20968;-64
2021/06/16 08:14:47;;;;;;;6.17;3.33;;;;;;;39.27;24.23;99158.01;1691599;81;21504;-65
2021/06/16 08:17:13;;;;;;;8.65;3.37;;;;;;;39.44;24.10;99155.36;1722648;82;21215;-62
2021/06/16 08:19:40;;;;;;;2.98;2.70;;;;;;;39.59;24.08;99159.19;1737445;80;20992;-60
